Terminal Aerodrome Forecast
Issued by NWS Memphis, TN

Home | Current Version | Previous Version | Text Only | Print | Product List | Glossary On
Versions: 1 2 3 4 5 6 7 8 9 10 11 12 13 14 15 16 17 18
000
FTUS44 KMEG 300126 AAA
TAFJBR
TAF AMD
KJBR 300126Z 3001/3024 10006KT P6SM VCSH BKN110
     FM300400 12008KT P6SM -SHRA VCTS BKN015CB OVC030
      TEMPO 3006/3010 3SM TSRA BR BKN015CB OVC050
     FM301000 15015G25KT 5SM -TSRA BKN025CB OVC040
     FM301400 21015G25KT P6SM BKN050 OVC120
     FM301900 20015G25KT P6SM VCTS SCT050CB BKN250=

USA.gov is the U.S. government's official web portal to all federal, state and local government web resources and services.